Time;durP1;ratioP1;P1;durP2;ratioP2;P2;SDS_P1;SDS_P2;PMS_P1;PMS_P2;Temp;Humidity;BMP_temperature;BMP_pressure;BME280_temperature;BME280_humidity;BME280_pressure;Samples;Min_cycle;Max_cycle;Signal;HPM_P1;HPM_P2
2024/01/24 00:00:39;;;;;;;37.60;8.10;;;;;;;3.56;80.82;101178.67;104908;1254;138749;-60
2024/01/24 00:03:25;;;;;;;29.50;7.00;;;;;;;3.58;80.80;101169.23;105082;1257;61257;-61
2024/01/24 00:05:52;;;;;;;32.90;6.50;;;;;;;3.60;80.70;101166.76;104653;1260;138592;-59
2024/01/24 00:08:19;;;;;;;31.10;7.00;;;;;;;3.60;80.77;101167.48;105023;1256;66596;-62
2024/01/24 00:10:46;;;;;;;33.00;6.60;;;;;;;3.63;80.80;101156.70;104907;1254;139497;-59
2024/01/24 00:13:12;;;;;;;36.30;6.80;;;;;;;3.65;80.86;101144.66;104988;1254;61275;-60
2024/01/24 00:15:40;;;;;;;34.20;6.50;;;;;;;3.64;80.72;101140.45;104783;1260;61338;-59
2024/01/24 00:18:06;;;;;;;27.20;6.60;;;;;;;3.66;80.79;101126.33;109022;1254;138452;-59
2024/01/24 00:20:33;;;;;;;22.20;6.40;;;;;;;3.66;80.93;101114.36;107404;1254;66328;-59
2024/01/24 00:23:00;;;;;;;24.20;5.60;;;;;;;3.66;80.76;101116.13;104807;1255;139080;-59
2024/01/24 00:25:27;;;;;;;30.20;6.30;;;;;;;3.67;80.74;101110.08;104690;1260;61351;-60
2024/01/24 00:27:54;;;;;;;31.40;6.50;;;;;;;3.67;80.67;101104.19;104993;1255;61285;-60
2024/01/24 00:30:20;;;;;;;28.30;5.90;;;;;;;3.66;80.62;101101.90;104942;1256;138475;-60
2024/01/24 00:32:48;;;;;;;33.70;7.60;;;;;;;3.67;80.76;101107.81;104709;1260;65588;-60
2024/01/24 00:35:15;;;;;;;26.80;6.20;;;;;;;3.67;80.77;101107.30;104673;1260;138901;-59
2024/01/24 00:37:41;;;;;;;25.90;6.50;;;;;;;3.66;80.79;101089.36;108931;1254;59460;-60
2024/01/24 00:40:09;;;;;;;31.90;7.00;;;;;;;3.66;80.75;101068.86;109085;1254;61575;-60
2024/01/24 00:42:35;;;;;;;33.90;6.20;;;;;;;3.65;80.68;101056.87;109004;1254;138981;-60
2024/01/24 00:45:03;;;;;;;26.40;5.30;;;;;;;3.67;80.75;101046.90;108090;1254;66274;-66
2024/01/24 00:47:29;;;;;;;25.10;6.00;;;;;;;3.71;80.92;101038.27;104835;1257;138775;-65
2024/01/24 00:49:56;;;;;;;27.20;6.30;;;;;;;3.74;80.81;101026.27;105241;1259;61343;-65
2024/01/24 00:52:23;;;;;;;31.20;6.20;;;;;;;3.76;80.80;101018.08;105052;1260;61892;-66
2024/01/24 00:54:49;;;;;;;28.10;5.80;;;;;;;3.78;80.82;101018.16;105076;1259;74527;-65
2024/01/24 00:57:16;;;;;;;23.20;6.40;;;;;;;3.79;80.85;101020.83;104897;1260;66824;-65
2024/01/24 00:59:43;;;;;;;33.30;7.70;;;;;;;3.81;80.90;101028.94;105253;1258;138508;-65
2024/01/24 01:02:09;;;;;;;33.80;9.40;;;;;;;3.84;80.94;101037.83;105006;1254;61241;-65
2024/01/24 01:04:36;;;;;;;38.90;9.30;;;;;;;3.85;80.72;101040.45;104920;1254;138566;-65
2024/01/24 01:07:03;;;;;;;34.80;8.60;;;;;;;3.85;80.77;101036.83;105171;1259;73718;-65
2024/01/24 01:09:30;;;;;;;38.20;8.30;;;;;;;3.84;80.71;101024.27;105019;1258;65427;-65
2024/01/24 01:11:57;;;;;;;39.10;8.10;;;;;;;3.84;80.74;101021.83;104854;1259;138173;-66
2024/01/24 01:14:23;;;;;;;35.80;8.00;;;;;;;3.82;80.64;101012.16;104810;1256;61241;-65
2024/01/24 01:16:50;;;;;;;35.80;6.90;;;;;;;3.79;80.67;101005.08;104927;1259;138973;-64
2024/01/24 01:19:17;;;;;;;33.60;7.40;;;;;;;3.78;80.80;101001.38;104938;1257;75713;-65
2024/01/24 01:21:43;;;;;;;40.20;8.30;;;;;;;3.79;80.83;101000.17;105141;1254;66909;-66
2024/01/24 01:24:10;;;;;;;36.30;7.20;;;;;;;3.80;80.77;100990.86;104722;1257;138626;-65
2024/01/24 01:26:37;;;;;;;30.40;7.00;;;;;;;3.80;80.79;100984.30;104993;1261;61285;-65
2024/01/24 01:29:04;;;;;;;32.10;7.80;;;;;;;3.81;80.81;100976.89;105049;1254;138499;-65
2024/01/24 01:31:30;;;;;;;25.90;6.80;;;;;;;3.82;80.72;100969.31;104773;1254;75763;-65
2024/01/24 01:33:57;;;;;;;21.20;5.70;;;;;;;3.81;80.74;100954.50;104929;1257;64582;-65
2024/01/24 01:36:24;;;;;;;27.10;6.60;;;;;;;3.84;80.78;100938.48;104814;1256;138429;-65
2024/01/24 01:38:51;;;;;;;24.80;6.10;;;;;;;3.85;80.77;100931.46;104771;1256;61393;-59
2024/01/24 01:41:17;;;;;;;27.60;6.10;;;;;;;3.85;80.59;100917.06;104748;1254;139080;-59
2024/01/24 01:43:44;;;;;;;31.30;7.30;;;;;;;3.84;80.62;100904.34;104925;1259;75536;-58
2024/01/24 01:46:17;;;;;;;24.00;6.50;;;;;;;3.85;80.67;100906.13;109151;1254;64948;-59
2024/01/24 01:48:44;;;;;;;30.50;6.80;;;;;;;3.85;80.52;100898.46;106772;1256;137614;-65
2024/01/24 01:51:12;;;;;;;33.00;7.10;;;;;;;3.86;80.62;100892.80;104835;1261;61191;-66
2024/01/24 01:53:39;;;;;;;25.80;7.20;;;;;;;3.88;80.55;100885.77;104869;1257;137782;-65
2024/01/24 01:56:07;;;;;;;26.50;6.90;;;;;;;3.88;80.61;100881.44;104948;1254;74640;-65
2024/01/24 01:58:36;;;;;;;32.60;7.10;;;;;;;3.90;80.62;100868.50;105280;1254;139062;-66
2024/01/24 02:01:04;;;;;;;25.40;6.20;;;;;;;3.91;80.60;100856.94;105306;1256;72585;-66
2024/01/24 02:03:30;;;;;;;23.60;5.80;;;;;;;3.92;80.64;100849.36;104732;1257;61240;-65
2024/01/24 02:05:57;;;;;;;24.40;5.80;;;;;;;3.93;80.58;100836.57;104747;1255;138460;-65
2024/01/24 02:08:24;;;;;;;31.50;7.10;;;;;;;3.93;80.47;100831.86;104738;1260;74433;-65
2024/01/24 02:10:51;;;;;;;26.40;7.00;;;;;;;3.94;80.55;100822.21;104974;1259;138798;-65
2024/01/24 02:13:19;;;;;;;31.20;7.20;;;;;;;3.95;80.53;100810.13;105079;1258;73203;-66
2024/01/24 02:15:46;;;;;;;29.20;7.10;;;;;;;3.98;80.59;100796.20;105558;1256;61329;-60
2024/01/24 02:18:12;;;;;;;32.40;6.60;;;;;;;4.00;80.49;100783.78;104577;1255;138852;-60
2024/01/24 02:20:39;;;;;;;30.30;7.40;;;;;;;4.00;80.37;100775.31;105021;1254;75905;-65
2024/01/24 02:23:08;;;;;;;23.40;7.00;;;;;;;4.00;80.39;100769.58;104752;1254;138010;-65
2024/01/24 02:25:35;;;;;;;28.70;7.80;;;;;;;4.00;80.30;100762.25;108552;1256;72457;-65
2024/01/24 02:28:01;;;;;;;20.50;6.70;;;;;;;4.00;80.35;100756.38;105038;1259;61244;-66
2024/01/24 02:30:28;;;;;;;24.20;6.60;;;;;;;4.01;80.39;100750.84;104790;1256;138160;-65
2024/01/24 02:32:56;;;;;;;27.90;7.20;;;;;;;4.01;80.20;100738.52;106133;1256;75509;-66
2024/01/24 02:35:25;;;;;;;27.30;6.10;;;;;;;4.02;80.30;100717.77;104993;1260;138631;-59
2024/01/24 02:37:51;;;;;;;27.00;6.70;;;;;;;4.03;80.11;100703.39;104946;1257;72644;-70
2024/01/24 02:40:18;;;;;;;25.00;6.40;;;;;;;4.05;80.24;100703.15;104873;1256;61263;-61
2024/01/24 02:42:45;;;;;;;30.60;6.60;;;;;;;4.07;80.16;100692.50;104731;1261;138261;-65
2024/01/24 02:45:12;;;;;;;22.90;6.20;;;;;;;4.10;80.16;100679.27;104923;1257;75663;-65
2024/01/24 02:47:39;;;;;;;20.70;6.40;;;;;;;4.11;80.08;100662.96;105002;1254;138441;-59
2024/01/24 02:50:07;;;;;;;24.80;6.30;;;;;;;4.14;80.17;100653.04;105069;1257;73540;-65
2024/01/24 02:52:34;;;;;;;19.70;5.40;;;;;;;4.17;80.04;100646.77;105227;1259;138951;-60
2024/01/24 02:55:01;;;;;;;25.60;5.70;;;;;;;4.18;79.94;100631.20;105069;1258;61176;-60
2024/01/24 02:57:27;;;;;;;24.10;6.20;;;;;;;4.19;79.88;100623.95;105042;1254;74604;-66
2024/01/24 02:59:54;;;;;;;21.50;5.60;;;;;;;4.20;80.03;100615.65;105040;1259;137825;-65
2024/01/24 03:02:21;;;;;;;19.00;5.30;;;;;;;4.22;79.88;100610.35;105147;1257;73483;-64
2024/01/24 03:04:48;;;;;;;22.10;6.30;;;;;;;4.23;79.81;100605.03;104915;1256;138499;-64
2024/01/24 03:07:14;;;;;;;20.80;5.50;;;;;;;4.23;79.73;100603.99;105081;1259;61292;-64
2024/01/24 03:09:41;;;;;;;21.90;6.50;;;;;;;4.22;79.63;100596.48;105034;1259;73907;-64
2024/01/24 03:12:08;;;;;;;22.80;6.20;;;;;;;4.21;79.66;100594.89;104891;1259;138661;-59
2024/01/24 03:14:35;;;;;;;16.20;5.40;;;;;;;4.22;79.63;100583.28;104918;1254;72600;-59
2024/01/24 03:17:02;;;;;;;29.30;7.50;;;;;;;4.24;79.65;100569.80;105076;1257;138616;-59
2024/01/24 03:19:29;;;;;;;20.30;5.60;;;;;;;4.25;79.62;100553.20;104993;1261;61254;-59
2024/01/24 03:21:55;;;;;;;19.50;5.70;;;;;;;4.26;79.47;100557.60;105159;1257;74452;-65
2024/01/24 03:24:22;;;;;;;20.10;5.70;;;;;;;4.26;79.29;100553.59;104726;1257;138632;-61
2024/01/24 03:26:49;;;;;;;23.20;5.80;;;;;;;4.27;79.44;100547.57;104997;1257;73351;-58
2024/01/24 03:29:15;;;;;;;22.90;5.80;;;;;;;4.29;79.38;100549.92;104921;1257;138053;-60
2024/01/24 03:31:43;;;;;;;20.50;6.00;;;;;;;4.28;79.31;100538.73;105043;1258;61362;-59
2024/01/24 03:34:10;;;;;;;17.40;5.80;;;;;;;4.28;79.31;100523.80;109149;1254;74602;-59
2024/01/24 03:36:37;;;;;;;19.50;6.60;;;;;;;4.28;79.29;100512.36;107585;1255;138571;-64
2024/01/24 03:39:04;;;;;;;16.50;5.10;;;;;;;4.29;79.25;100508.02;104947;1257;73313;-64
2024/01/24 03:41:31;;;;;;;23.60;5.90;;;;;;;4.29;79.25;100495.18;104563;1256;138697;-59
2024/01/24 03:43:57;;;;;;;15.20;4.80;;;;;;;4.29;79.09;100489.98;105009;1256;61582;-64
2024/01/24 03:46:24;;;;;;;22.60;6.10;;;;;;;4.28;79.09;100477.46;104874;1256;74101;-65
2024/01/24 03:48:51;;;;;;;21.90;5.80;;;;;;;4.29;79.19;100464.10;105046;1257;65796;-59
2024/01/24 03:51:17;;;;;;;16.50;5.30;;;;;;;4.29;79.16;100458.36;105001;1259;73727;-60
2024/01/24 03:53:44;;;;;;;24.10;6.90;;;;;;;4.32;79.26;100449.80;104787;1262;139252;-60
2024/01/24 03:56:11;;;;;;;19.30;6.60;;;;;;;4.34;79.23;100429.21;104946;1257;61356;-60
2024/01/24 03:58:37;;;;;;;19.50;5.40;;;;;;;4.35;79.42;100416.61;104911;1256;138457;-60
2024/01/24 04:01:05;;;;;;;22.00;7.60;;;;;;;4.35;79.41;100402.52;105054;1256;67214;-59
2024/01/24 04:03:31;;;;;;;23.20;7.30;;;;;;;4.36;79.55;100393.52;104990;1256;72069;-59
2024/01/24 04:05:58;;;;;;;22.80;6.80;;;;;;;4.33;79.53;100384.02;104956;1257;138151;-60
2024/01/24 04:08:25;;;;;;;19.20;6.30;;;;;;;4.30;79.66;100364.95;104905;1257;61180;-60
2024/01/24 04:10:51;;;;;;;30.40;7.00;;;;;;;4.27;79.71;100353.04;104876;1257;138485;-60
2024/01/24 04:13:18;;;;;;;23.30;7.30;;;;;;;4.26;79.87;100347.57;105105;1257;66033;-61
2024/01/24 04:15:45;;;;;;;23.70;6.70;;;;;;;4.20;79.85;100336.40;105084;1257;73717;-60
2024/01/24 04:18:11;;;;;;;25.30;7.90;;;;;;;4.16;80.09;100327.70;104827;1259;138465;-65
2024/01/24 04:20:38;;;;;;;26.60;7.40;;;;;;;4.14;80.21;100320.31;104875;1257;61157;-66
2024/01/24 04:23:04;;;;;;;22.20;7.00;;;;;;;4.11;80.30;100311.68;104793;1257;139522;-67
2024/01/24 04:25:31;;;;;;;23.70;6.40;;;;;;;4.06;80.29;100300.53;104990;1259;66925;-65
2024/01/24 04:27:59;;;;;;;20.80;6.60;;;;;;;3.99;80.35;100293.79;108011;1256;73771;-65
2024/01/24 04:30:26;;;;;;;21.80;6.00;;;;;;;3.92;80.28;100288.97;104773;1257;139081;-65
2024/01/24 04:32:52;;;;;;;17.90;5.90;;;;;;;3.87;80.34;100280.59;104929;1257;61460;-66
2024/01/24 04:35:20;;;;;;;15.70;6.40;;;;;;;3.81;80.56;100273.75;104847;1259;138457;-66
2024/01/24 04:37:46;;;;;;;16.60;6.40;;;;;;;3.73;80.46;100265.06;105368;1257;67188;-65
2024/01/24 04:40:13;;;;;;;23.10;7.20;;;;;;;3.65;80.57;100256.87;104923;1257;73264;-65
2024/01/24 04:42:40;;;;;;;20.70;6.60;;;;;;;3.63;80.83;100243.60;104618;1256;138532;-65
2024/01/24 04:45:07;;;;;;;25.90;7.70;;;;;;;3.60;80.97;100226.30;105079;1261;61304;-65
2024/01/24 04:47:35;;;;;;;20.50;7.10;;;;;;;3.58;80.98;100216.11;104980;1255;138603;-66
2024/01/24 04:50:01;;;;;;;23.40;7.20;;;;;;;3.53;81.02;100205.34;105121;1257;67708;-66
2024/01/24 04:52:28;;;;;;;19.70;7.20;;;;;;;3.49;81.16;100198.23;104852;1261;138634;-64
2024/01/24 04:54:55;;;;;;;21.30;7.10;;;;;;;3.44;81.31;100182.58;104827;1262;61359;-66
2024/01/24 04:57:22;;;;;;;26.60;7.30;;;;;;;3.44;81.52;100168.70;105177;1256;61237;-65
2024/01/24 04:59:48;;;;;;;18.60;6.20;;;;;;;3.45;81.63;100152.98;105036;1257;138406;-65
2024/01/24 05:02:16;;;;;;;17.90;7.30;;;;;;;3.46;81.73;100146.77;105016;1259;67400;-67
2024/01/24 05:04:42;;;;;;;18.50;6.30;;;;;;;3.47;81.72;100134.65;104951;1254;139089;-66
2024/01/24 05:07:09;;;;;;;20.30;6.30;;;;;;;3.47;81.69;100111.96;105059;1259;61340;-66
2024/01/24 05:09:36;;;;;;;14.20;6.20;;;;;;;3.46;81.89;100098.71;104988;1258;61623;-66
2024/01/24 05:12:03;;;;;;;18.40;6.50;;;;;;;3.44;81.96;100089.08;104631;1256;138606;-66
2024/01/24 05:14:36;;;;;;;20.80;7.30;;;;;;;3.42;82.01;100076.84;104905;1259;67164;-66
2024/01/24 05:17:03;;;;;;;18.80;6.30;;;;;;;3.42;82.15;100068.70;105465;1259;138463;-66
2024/01/24 05:19:32;;;;;;;18.90;6.40;;;;;;;3.44;82.27;100063.57;104979;1259;62130;-66
2024/01/24 05:21:59;;;;;;;14.60;5.90;;;;;;;3.44;82.36;100057.00;105022;1260;61244;-66
2024/01/24 05:24:25;;;;;;;14.10;6.60;;;;;;;3.46;82.55;100046.33;104943;1259;138217;-66
2024/01/24 05:26:52;;;;;;;17.30;6.50;;;;;;;3.45;82.52;100044.21;104959;1257;65018;-66
2024/01/24 05:29:19;;;;;;;17.10;6.50;;;;;;;3.45;82.49;100035.02;106060;1257;138986;-64
2024/01/24 05:31:46;;;;;;;12.50;5.50;;;;;;;3.45;82.64;100032.42;105133;1256;61365;-65
2024/01/24 05:34:13;;;;;;;20.90;6.80;;;;;;;3.45;82.74;100027.02;104990;1259;61333;-62
2024/01/24 05:36:39;;;;;;;14.30;6.10;;;;;;;3.45;82.77;100005.67;104904;1257;138510;-62
2024/01/24 05:39:06;;;;;;;16.40;6.20;;;;;;;3.45;82.89;99984.05;104967;1259;65866;-59
2024/01/24 05:41:34;;;;;;;17.40;5.80;;;;;;;3.47;83.14;99967.77;104878;1259;138900;-62
2024/01/24 05:44:01;;;;;;;18.00;5.60;;;;;;;3.48;83.19;99962.27;105002;1257;61356;-58
2024/01/24 05:46:28;;;;;;;11.80;5.40;;;;;;;3.49;83.15;99960.94;104908;1257;138577;-58
2024/01/24 05:48:55;;;;;;;11.60;5.10;;;;;;;3.53;83.27;99946.86;104962;1257;73945;-65
2024/01/24 05:51:21;;;;;;;10.20;5.30;;;;;;;3.57;83.42;99936.08;105005;1258;67027;-63
2024/01/24 05:53:48;;;;;;;13.50;5.20;;;;;;;3.59;83.40;99929.07;104914;1259;138412;-60
2024/01/24 05:56:15;;;;;;;12.50;5.40;;;;;;;3.62;83.56;99921.73;104951;1258;61411;-65
2024/01/24 05:58:41;;;;;;;13.30;5.70;;;;;;;3.63;83.56;99912.23;105037;1255;138652;-64
2024/01/24 06:01:08;;;;;;;8.60;4.10;;;;;;;3.65;83.60;99905.70;105036;1255;73854;-63
2024/01/24 06:03:35;;;;;;;15.70;5.00;;;;;;;3.66;83.72;99895.84;105129;1258;66512;-65
2024/01/24 06:06:02;;;;;;;9.30;4.50;;;;;;;3.69;83.83;99889.55;104881;1259;138658;-58
2024/01/24 06:08:31;;;;;;;7.80;4.20;;;;;;;3.72;83.91;99881.85;104979;1254;61274;-59
2024/01/24 06:10:58;;;;;;;8.90;4.40;;;;;;;3.73;83.92;99877.90;105930;1258;138481;-64
2024/01/24 06:13:25;;;;;;;10.10;4.00;;;;;;;3.76;84.04;99878.73;105009;1256;75183;-59
2024/01/24 06:15:52;;;;;;;12.20;4.10;;;;;;;3.81;84.23;99878.05;105121;1256;66198;-64
2024/01/24 06:18:18;;;;;;;7.40;3.90;;;;;;;3.85;84.18;99878.04;104776;1256;138748;-64
2024/01/24 06:20:45;;;;;;;10.20;4.00;;;;;;;3.87;84.21;99877.24;105297;1255;61362;-64
2024/01/24 06:23:13;;;;;;;5.60;3.60;;;;;;;3.89;84.24;99873.47;104801;1260;139437;-60
2024/01/24 06:25:39;;;;;;;7.30;3.80;;;;;;;3.93;84.33;99872.76;109136;1256;74715;-59
2024/01/24 06:28:06;;;;;;;6.10;3.10;;;;;;;3.97;84.43;99869.27;105344;1259;64883;-64
2024/01/24 06:30:33;;;;;;;4.70;2.90;;;;;;;3.99;84.47;99842.42;104827;1257;138222;-64
2024/01/24 06:33:00;;;;;;;6.60;3.30;;;;;;;4.00;84.52;99850.10;104762;1257;61465;-63
2024/01/24 06:35:26;;;;;;;6.00;3.10;;;;;;;4.03;84.52;99852.64;104770;1257;138089;-63
2024/01/24 06:37:54;;;;;;;12.30;3.30;;;;;;;4.03;84.58;99833.04;104979;1255;74088;-63
2024/01/24 06:40:21;;;;;;;6.80;3.10;;;;;;;4.05;84.71;99813.31;105057;1256;66855;-59
2024/01/24 06:42:48;;;;;;;7.70;3.20;;;;;;;4.08;84.90;99844.31;104847;1257;138138;-65
2024/01/24 06:45:15;;;;;;;5.60;2.60;;;;;;;4.14;84.98;99871.26;104772;1260;61315;-64
2024/01/24 06:47:43;;;;;;;5.70;3.10;;;;;;;4.17;84.91;99820.16;104889;1259;137914;-63
2024/01/24 06:50:13;;;;;;;4.80;2.50;;;;;;;4.19;84.91;99825.79;105077;1257;74096;-62
2024/01/24 06:52:40;;;;;;;4.30;2.70;;;;;;;4.23;84.95;99851.45;104640;1256;138489;-61
2024/01/24 06:55:08;;;;;;;6.90;3.10;;;;;;;4.26;85.02;99830.89;104707;1262;70873;-62
2024/01/24 06:57:35;;;;;;;4.60;2.60;;;;;;;4.29;85.02;99821.10;109129;1255;59039;-62
2024/01/24 07:00:04;;;;;;;7.90;3.10;;;;;;;4.28;84.85;99808.06;109090;1255;138323;-62
2024/01/24 07:02:31;;;;;;;5.60;2.40;;;;;;;4.30;85.00;99798.40;107737;1259;74255;-64
2024/01/24 07:04:58;;;;;;;5.10;2.80;;;;;;;4.32;84.98;99780.92;104826;1257;138984;-66
2024/01/24 07:07:25;;;;;;;4.00;2.40;;;;;;;4.34;84.99;99761.17;104934;1256;71724;-57
2024/01/24 07:09:52;;;;;;;5.30;3.10;;;;;;;4.37;85.04;99756.76;105016;1258;61230;-66
2024/01/24 07:12:20;;;;;;;5.50;2.90;;;;;;;4.38;85.13;99744.30;104765;1256;138096;-66
2024/01/24 07:14:50;;;;;;;4.90;3.50;;;;;;;4.40;85.10;99747.84;104847;1256;74821;-66
2024/01/24 07:17:16;;;;;;;5.30;3.00;;;;;;;4.42;85.12;99731.58;104909;1257;138735;-56
2024/01/24 07:19:44;;;;;;;4.80;2.60;;;;;;;4.43;85.19;99720.66;104979;1259;73079;-57
2024/01/24 07:22:10;;;;;;;5.40;3.60;;;;;;;4.42;85.27;99723.41;104859;1259;61369;-57
2024/01/24 07:24:37;;;;;;;12.10;5.60;;;;;;;4.43;85.32;99729.52;104786;1257;139089;-56
2024/01/24 07:27:04;;;;;;;4.20;2.50;;;;;;;4.44;85.38;99716.38;104992;1259;75116;-65
2024/01/24 07:29:31;;;;;;;4.20;3.00;;;;;;;4.47;85.51;99707.26;104851;1258;138038;-56
2024/01/24 07:31:57;;;;;;;11.00;8.30;;;;;;;4.49;85.47;99710.61;105007;1257;73344;-66
2024/01/24 07:34:24;;;;;;;6.90;4.90;;;;;;;4.52;85.61;99711.21;104983;1270;61353;-65
2024/01/24 07:36:51;;;;;;;5.10;3.20;;;;;;;4.55;85.59;99706.98;105123;1259;61136;-67
2024/01/24 07:39:18;;;;;;;4.80;3.00;;;;;;;4.58;85.71;99708.11;105101;1259;73851;-67
2024/01/24 07:41:45;;;;;;;4.80;2.90;;;;;;;4.62;85.82;99700.95;104902;1259;138222;-66
2024/01/24 07:44:11;;;;;;;5.60;2.60;;;;;;;4.65;85.73;99692.70;105156;1257;72219;-65
2024/01/24 07:46:43;;;;;;;5.10;4.00;;;;;;;4.66;85.74;99691.70;105024;1257;138616;-67
2024/01/24 07:49:09;;;;;;;10.30;5.50;;;;;;;4.68;85.97;99699.07;105581;1254;61740;-65
2024/01/24 07:51:36;;;;;;;5.80;3.10;;;;;;;4.73;86.09;99699.05;104940;1257;73894;-65
2024/01/24 07:54:04;;;;;;;3.20;2.60;;;;;;;4.81;86.23;99698.95;104884;1259;137955;-65
2024/01/24 07:56:31;;;;;;;3.00;2.20;;;;;;;4.93;86.39;99699.48;104964;1259;73063;-56
2024/01/24 07:58:57;;;;;;;2.70;2.20;;;;;;;5.06;86.31;99693.09;104861;1259;138765;-56
2024/01/24 08:01:24;;;;;;;2.80;1.90;;;;;;;5.17;86.40;99685.77;104960;1257;61350;-65
2024/01/24 08:03:51;;;;;;;2.20;1.50;;;;;;;5.29;86.32;99672.20;104998;1259;73407;-56
2024/01/24 08:06:18;;;;;;;6.00;3.90;;;;;;;5.39;86.33;99657.53;104853;1258;139021;-57
2024/01/24 08:08:45;;;;;;;11.10;10.00;;;;;;;5.52;86.36;99655.97;104907;1254;73644;-65
2024/01/24 08:11:11;;;;;;;15.60;10.20;;;;;;;5.59;86.15;99660.70;104552;1258;138942;-65
2024/01/24 08:13:38;;;;;;;29.80;19.00;;;;;;;5.63;86.06;99661.32;104893;1259;61255;-65
2024/01/24 08:16:07;;;;;;;22.90;14.80;;;;;;;5.67;86.00;99645.77;104833;1259;75529;-66
2024/01/24 08:18:34;;;;;;;36.60;21.30;;;;;;;5.67;85.81;99626.79;104760;1258;139414;-66
2024/01/24 08:21:00;;;;;;;24.50;12.80;;;;;;;5.68;85.86;99606.11;104599;1260;72936;-68
2024/01/24 08:23:27;;;;;;;9.70;5.90;;;;;;;5.71;85.84;99619.77;104877;1262;138422;-65
2024/01/24 08:25:54;;;;;;;22.80;14.10;;;;;;;5.71;85.76;99613.85;108944;1256;59049;-65
2024/01/24 08:28:20;;;;;;;43.60;24.40;;;;;;;5.70;85.64;99616.61;108729;1256;74633;-65
2024/01/24 08:30:47;;;;;;;57.10;32.70;;;;;;;5.73;85.77;99620.00;108606;1256;139068;-65
2024/01/24 08:33:14;;;;;;;59.30;34.30;;;;;;;5.78;85.87;99609.51;108948;1255;73254;-65
2024/01/24 08:35:41;;;;;;;48.80;25.50;;;;;;;5.82;85.76;99606.83;108853;1256;139379;-65
2024/01/24 08:38:08;;;;;;;45.20;22.70;;;;;;;5.85;85.67;99606.02;108954;1256;60466;-65
2024/01/24 08:40:35;;;;;;;31.30;17.50;;;;;;;5.86;85.72;99601.87;108837;1254;139522;-57
2024/01/24 08:43:01;;;;;;;39.30;20.70;;;;;;;5.88;85.61;99603.49;109090;1254;66203;-57
2024/01/24 08:45:28;;;;;;;56.50;32.90;;;;;;;5.92;85.78;99607.44;109036;1254;72735;-65
2024/01/24 08:47:55;;;;;;;29.60;17.60;;;;;;;5.99;85.90;99604.67;108980;1255;138491;-66
2024/01/24 08:50:22;;;;;;;22.80;15.80;;;;;;;6.08;85.78;99609.92;107188;1255;61656;-66
2024/01/24 08:52:50;;;;;;;13.60;10.60;;;;;;;6.18;86.10;99607.04;109009;1256;140400;-64
2024/01/24 08:55:16;;;;;;;7.90;6.60;;;;;;;6.31;86.18;99610.33;109147;1254;66334;-66
2024/01/24 08:57:43;;;;;;;5.70;4.70;;;;;;;6.50;86.33;99616.00;109156;1257;73751;-66
2024/01/24 09:00:11;;;;;;;4.90;4.40;;;;;;;6.68;86.31;99609.78;108763;1256;138484;-66
2024/01/24 09:02:37;;;;;;;6.60;4.70;;;;;;;6.85;86.16;99611.19;108944;1257;60363;-66
2024/01/24 09:05:05;;;;;;;5.50;4.80;;;;;;;7.00;86.15;99612.55;109060;1254;139108;-65
2024/01/24 09:07:32;;;;;;;8.70;7.30;;;;;;;7.19;86.17;99607.88;109163;1254;64392;-65
2024/01/24 09:09:59;;;;;;;6.00;4.80;;;;;;;7.35;86.07;99601.92;109105;1254;72502;-66
2024/01/24 09:12:25;;;;;;;5.10;4.60;;;;;;;7.51;86.03;99600.48;109047;1254;138613;-65
2024/01/24 09:14:52;;;;;;;4.40;2.80;;;;;;;7.61;85.78;99595.43;109095;1259;61658;-64
2024/01/24 09:17:19;;;;;;;6.20;5.60;;;;;;;7.68;85.53;99592.93;108887;1254;138157;-65
2024/01/24 09:19:46;;;;;;;6.40;4.80;;;;;;;7.75;85.31;99589.58;109040;1254;65511;-57
2024/01/24 09:22:13;;;;;;;7.60;4.90;;;;;;;7.83;85.21;99586.92;109145;1256;72234;-57
2024/01/24 09:24:39;;;;;;;8.70;7.70;;;;;;;7.82;84.96;99584.80;108791;1254;192498;-57
2024/01/24 09:27:06;;;;;;;6.00;5.00;;;;;;;7.83;84.83;99585.51;105594;1259;61279;-57
2024/01/24 09:29:33;;;;;;;10.70;8.30;;;;;;;7.89;85.07;99584.21;104816;1259;138014;-56
2024/01/24 09:32:00;;;;;;;4.00;2.70;;;;;;;7.90;84.85;99580.05;105095;1259;65831;-56
2024/01/24 09:34:26;;;;;;;3.80;2.70;;;;;;;7.87;84.78;99578.41;104929;1259;139003;-57
2024/01/24 09:36:56;;;;;;;2.50;2.00;;;;;;;7.85;84.81;99576.11;104948;1257;61231;-56
2024/01/24 09:39:25;;;;;;;3.30;2.50;;;;;;;7.83;84.86;99575.73;104969;1259;61353;-56
2024/01/24 09:41:53;;;;;;;2.60;1.90;;;;;;;7.86;85.08;99575.45;108949;1254;138629;-57
2024/01/24 09:44:20;;;;;;;3.50;1.90;;;;;;;7.94;85.23;99574.36;108960;1254;66198;-57
2024/01/24 09:46:48;;;;;;;3.10;1.90;;;;;;;8.04;85.38;99571.89;108715;1256;138119;-57
2024/01/24 09:49:15;;;;;;;4.00;3.30;;;;;;;8.13;85.19;99565.91;109046;1254;59223;-56
2024/01/24 09:51:42;;;;;;;3.90;3.50;;;;;;;8.29;85.56;99560.57;109098;1257;60035;-56
2024/01/24 09:54:09;;;;;;;3.10;2.80;;;;;;;8.48;85.52;99562.78;109014;1255;138560;-57
2024/01/24 09:56:37;;;;;;;5.50;4.40;;;;;;;8.58;85.33;99561.02;109163;1257;66076;-56
2024/01/24 09:59:05;;;;;;;7.20;6.00;;;;;;;8.63;85.19;99561.27;107836;1259;139023;-57
2024/01/24 10:01:35;;;;;;;6.20;5.20;;;;;;;8.66;84.87;99570.59;104979;1256;61222;-57
2024/01/24 10:04:02;;;;;;;9.70;5.80;;;;;;;8.67;84.69;99575.66;109132;1254;59761;-57
2024/01/24 10:06:29;;;;;;;14.00;10.40;;;;;;;8.63;84.59;99562.67;109015;1255;138994;-57
2024/01/24 10:08:59;;;;;;;9.60;7.80;;;;;;;8.65;84.69;99563.40;109128;1259;64975;-57
2024/01/24 10:11:26;;;;;;;6.60;4.30;;;;;;;8.72;84.77;99563.66;109007;1257;139212;-57
2024/01/24 10:13:57;;;;;;;8.90;5.00;;;;;;;8.74;84.72;99562.11;105140;1260;61361;-57
2024/01/24 10:16:24;;;;;;;22.40;12.80;;;;;;;8.77;84.73;99556.20;105181;1258;61248;-57
2024/01/24 10:18:53;;;;;;;36.50;24.10;;;;;;;8.84;84.82;99557.34;108897;1255;75078;-57
2024/01/24 10:21:20;;;;;;;49.80;26.10;;;;;;;8.94;84.94;99556.23;108917;1254;65519;-57
2024/01/24 10:23:46;;;;;;;18.50;10.10;;;;;;;9.02;84.72;99557.20;108918;1259;138962;-57
2024/01/24 10:26:16;;;;;;;9.60;5.00;;;;;;;9.02;84.42;99560.19;109172;1254;59582;-57
2024/01/24 10:28:44;;;;;;;8.30;3.40;;;;;;;9.01;84.32;99562.80;108952;1259;138131;-57
2024/01/24 10:31:11;;;;;;;9.40;3.30;;;;;;;9.01;84.30;99555.45;108948;1254;75749;-58
2024/01/24 10:33:38;;;;;;;6.70;3.30;;;;;;;9.06;84.29;99556.56;109104;1256;64769;-57
2024/01/24 10:36:06;;;;;;;13.70;4.00;;;;;;;9.11;84.31;99567.47;109022;1254;138211;-57
2024/01/24 10:38:32;;;;;;;12.90;3.60;;;;;;;9.13;84.24;99576.09;109150;1257;59277;-57
2024/01/24 10:41:00;;;;;;;11.90;3.60;;;;;;;9.19;84.34;99575.80;109065;1259;138543;-57
2024/01/24 10:43:27;;;;;;;15.00;3.70;;;;;;;9.30;84.40;99570.84;108976;1255;73078;-57
2024/01/24 10:45:55;;;;;;;12.90;4.20;;;;;;;9.43;84.58;99566.96;109068;1254;67610;-58
2024/01/24 10:48:22;;;;;;;12.20;4.20;;;;;;;9.54;84.27;99573.55;108871;1254;138476;-65
2024/01/24 10:50:48;;;;;;;10.30;3.70;;;;;;;9.57;83.96;99568.67;108835;1254;59251;-64
2024/01/24 10:53:15;;;;;;;16.40;6.70;;;;;;;9.68;83.99;99577.54;108980;1257;137911;-64
2024/01/24 10:55:41;;;;;;;14.80;4.40;;;;;;;9.82;83.80;99569.95;108866;1256;75859;-65
2024/01/24 10:58:11;;;;;;;17.70;4.20;;;;;;;9.89;83.77;99566.70;108814;1259;64784;-64
2024/01/24 11:00:41;;;;;;;20.10;5.30;;;;;;;10.04;83.71;99557.53;108783;1256;137670;-64
2024/01/24 11:03:08;;;;;;;15.00;4.90;;;;;;;10.13;83.36;99557.60;109100;1254;60240;-57
2024/01/24 11:05:37;;;;;;;22.20;5.20;;;;;;;10.15;83.07;99555.88;108803;1260;138399;-58
2024/01/24 11:08:23;;;;;;;16.70;4.60;;;;;;;10.14;82.55;99551.48;108966;1256;74359;-57
2024/01/24 11:10:50;;;;;;;16.20;5.40;;;;;;;10.11;82.29;99551.98;108768;1255;138932;-57
2024/01/24 11:13:17;;;;;;;18.30;5.30;;;;;;;10.11;82.40;99550.92;109033;1254;73752;-57
2024/01/24 11:15:45;;;;;;;21.90;6.00;;;;;;;10.15;82.15;99547.45;108640;1255;58959;-58
2024/01/24 11:18:22;;;;;;;29.70;6.60;;;;;;;10.16;81.89;99543.77;104988;1259;138579;-57